Time;durP1;ratioP1;P1;durP2;ratioP2;P2;SDS_P1;SDS_P2;PMS_P1;PMS_P2;Temp;Humidity;BMP_temperature;BMP_pressure;BME280_temperature;BME280_humidity;BME280_pressure;Samples;Min_cycle;Max_cycle;Signal;HPM_P1;HPM_P2
2021/06/24 00:01:49;;;;;;;26.77;10.70;;;;;;;24.45;69.54;95174.50;5075192;28;20951;-76
2021/06/24 00:04:16;;;;;;;27.70;11.03;;;;;;;24.43;69.43;95175.75;5075093;28;20481;-76
2021/06/24 00:06:43;;;;;;;23.00;10.33;;;;;;;24.41;69.85;95184.00;5075003;28;20448;-77
2021/06/24 00:09:11;;;;;;;17.13;10.10;;;;;;;24.37;69.75;95182.78;5074904;28;20448;-76
2021/06/24 00:11:38;;;;;;;22.77;9.63;;;;;;;24.33;70.13;95189.59;5075002;28;20945;-78
2021/06/24 00:14:07;;;;;;;28.90;9.83;;;;;;;24.40;70.67;95187.72;5074964;28;20996;-76
2021/06/24 00:16:34;;;;;;;22.67;10.30;;;;;;;24.45;70.40;95189.78;5023315;28;20988;-77
2021/06/24 00:19:01;;;;;;;29.50;10.03;;;;;;;24.48;69.65;95195.53;5074864;28;20450;-77
2021/06/24 00:21:28;;;;;;;26.37;11.20;;;;;;;24.44;70.36;95199.69;5074596;28;20520;-76
2021/06/24 00:23:55;;;;;;;33.50;9.30;;;;;;;24.42;70.63;95196.38;5074685;28;20456;-77
2021/06/24 00:26:22;;;;;;;21.47;9.83;;;;;;;24.42;71.01;95196.38;5074867;28;20516;-77
2021/06/24 00:28:49;;;;;;;22.20;10.83;;;;;;;24.44;71.74;95194.31;5074539;28;20443;-77
2021/06/24 00:31:18;;;;;;;29.50;11.00;;;;;;;24.45;71.84;95201.31;5074413;28;20480;-76
2021/06/24 00:33:45;;;;;;;26.73;10.70;;;;;;;24.45;71.64;95198.66;5074451;28;20500;-76
2021/06/24 00:36:12;;;;;;;26.20;9.90;;;;;;;24.44;71.52;95204.22;5074449;28;20489;-76
2021/06/24 00:38:39;;;;;;;22.10;9.27;;;;;;;24.43;71.24;95192.66;5074632;28;20520;-76
2021/06/24 00:41:06;;;;;;;29.53;11.03;;;;;;;24.38;70.81;95195.16;5074454;28;20923;-77
2021/06/24 00:43:34;;;;;;;19.77;10.80;;;;;;;24.33;70.92;95193.09;5074428;28;20459;-76
2021/06/24 00:46:01;;;;;;;17.40;10.50;;;;;;;24.27;70.99;95188.50;5055187;28;20548;-76
2021/06/24 00:48:29;;;;;;;26.53;9.87;;;;;;;24.24;71.03;95193.47;5074240;28;20442;-76
2021/06/24 00:50:56;;;;;;;24.37;10.73;;;;;;;24.18;70.87;95189.75;5073977;28;20450;-76
2021/06/24 00:53:23;;;;;;;28.83;11.37;;;;;;;24.13;71.26;95188.72;5074105;28;20568;-76
2021/06/24 00:55:51;;;;;;;21.23;9.73;;;;;;;24.12;71.91;95197.81;5074010;28;20934;-77
2021/06/24 00:58:21;;;;;;;24.17;9.63;;;;;;;24.04;71.95;95202.34;5022980;28;20517;-76
2021/06/24 01:00:50;;;;;;;24.67;11.40;;;;;;;24.01;72.64;95208.13;5022664;28;20459;-76
2021/06/24 01:03:18;;;;;;;21.60;11.23;;;;;;;24.02;72.34;95208.94;5073838;28;20507;-76
2021/06/24 01:05:48;;;;;;;22.20;10.50;;;;;;;24.03;72.22;95208.75;5074071;28;20520;-76
2021/06/24 01:08:16;;;;;;;20.23;10.80;;;;;;;24.04;72.23;95209.56;5038550;28;20464;-76
2021/06/24 01:10:45;;;;;;;18.40;9.87;;;;;;;24.08;72.84;95214.31;5073701;28;20818;-76
2021/06/24 01:13:13;;;;;;;26.95;11.55;;;;;;;24.12;72.61;95208.53;5022298;28;20879;-76
2021/06/24 01:15:40;;;;;;;35.43;11.77;;;;;;;24.09;73.14;95210.59;5073594;28;20236;-77
2021/06/24 01:18:07;;;;;;;30.87;11.27;;;;;;;24.07;73.08;95212.66;5073757;28;20453;-76
2021/06/24 01:20:37;;;;;;;21.33;10.27;;;;;;;24.05;73.05;95206.69;5073040;28;20453;-76
2021/06/24 01:23:07;;;;;;;21.13;10.47;;;;;;;24.04;73.37;95210.41;5073689;28;20454;-76
2021/06/24 01:25:36;;;;;;;23.50;11.00;;;;;;;24.04;73.80;95210.41;5073739;28;20448;-76
2021/06/24 01:28:07;;;;;;;16.27;9.60;;;;;;;24.00;74.42;95209.16;5073413;28;20496;-77
2021/06/24 01:30:36;;;;;;;22.47;10.33;;;;;;;23.99;73.84;95207.47;5073474;28;20448;-76
2021/06/24 01:33:04;;;;;;;26.20;11.60;;;;;;;23.96;73.82;95213.25;5073627;28;20520;-76
2021/06/24 01:35:32;;;;;;;30.83;13.30;;;;;;;23.86;73.33;95210.16;5073263;28;20442;-76
2021/06/24 01:38:00;;;;;;;16.67;10.40;;;;;;;23.80;74.08;95216.34;5073225;28;20446;-76
2021/06/24 01:40:28;;;;;;;29.07;11.93;;;;;;;23.79;74.37;95218.19;5073418;28;20478;-76
2021/06/24 01:42:56;;;;;;;20.53;11.80;;;;;;;23.73;74.42;95218.19;5073051;28;20460;-76
2021/06/24 01:45:23;;;;;;;25.33;10.57;;;;;;;23.70;75.35;95214.03;5073041;28;20464;-76
2021/06/24 01:47:51;;;;;;;19.20;10.37;;;;;;;23.63;75.52;95207.00;5073218;28;20479;-76
2021/06/24 01:50:19;;;;;;;19.93;10.10;;;;;;;23.63;75.74;95207.84;5073244;28;20937;-76
2021/06/24 01:52:47;;;;;;;21.80;11.53;;;;;;;23.62;75.95;95213.41;5072983;28;21056;-76
2021/06/24 01:55:17;;;;;;;24.07;11.60;;;;;;;23.59;75.97;95200.41;5073095;28;20471;-76
2021/06/24 01:57:44;;;;;;;25.33;10.67;;;;;;;23.55;75.96;95199.97;5073434;28;20521;-76
2021/06/24 02:00:14;;;;;;;24.03;11.03;;;;;;;23.54;76.05;95208.22;5073131;28;20504;-76
2021/06/24 02:02:42;;;;;;;27.43;11.93;;;;;;;23.53;75.61;95199.34;5072999;28;20437;-76
2021/06/24 02:05:10;;;;;;;19.90;11.93;;;;;;;23.47;75.33;95200.16;5072881;28;20490;-76
2021/06/24 02:07:40;;;;;;;24.83;12.60;;;;;;;23.44;76.04;95196.03;5072746;28;20484;-76
2021/06/24 02:10:09;;;;;;;23.17;11.03;;;;;;;23.39;75.68;95194.97;5072944;28;20516;-76
2021/06/24 02:12:36;;;;;;;28.17;12.27;;;;;;;23.32;75.96;95196.81;4973354;28;20552;-76
2021/06/24 02:15:05;;;;;;;29.40;12.20;;;;;;;23.29;75.92;95189.19;5072891;28;20445;-76
2021/06/24 02:17:34;;;;;;;21.70;11.20;;;;;;;23.22;76.00;95181.13;5072848;28;21016;-76
2021/06/24 02:20:01;;;;;;;23.60;11.63;;;;;;;23.16;76.29;95177.41;5072597;28;20452;-76
2021/06/24 02:22:28;;;;;;;29.47;11.63;;;;;;;23.02;76.76;95177.53;5072741;28;20477;-76
2021/06/24 02:24:55;;;;;;;24.37;12.23;;;;;;;22.95;77.01;95180.19;5072909;28;20444;-76
2021/06/24 02:27:22;;;;;;;21.70;12.00;;;;;;;22.88;77.40;95181.19;5072712;28;20472;-76
2021/06/24 02:29:49;;;;;;;22.97;12.40;;;;;;;22.91;77.57;95183.47;5072520;28;20476;-76
2021/06/24 02:32:16;;;;;;;27.67;11.83;;;;;;;22.92;77.62;95182.44;5039618;28;20844;-76
2021/06/24 02:34:47;;;;;;;26.10;12.60;;;;;;;22.95;77.29;95180.19;5076712;28;20609;-75
2021/06/24 02:37:14;;;;;;;30.17;13.23;;;;;;;22.97;77.38;95180.00;5076840;28;20455;-76
2021/06/24 02:39:41;;;;;;;23.37;11.33;;;;;;;22.99;77.43;95183.28;5024867;28;20436;-76
2021/06/24 02:42:09;;;;;;;22.57;11.73;;;;;;;23.01;77.46;95182.06;5076983;28;20443;-76
2021/06/24 02:44:36;;;;;;;27.30;13.27;;;;;;;23.03;77.30;95182.69;5076622;28;20555;-76
2021/06/24 02:47:03;;;;;;;21.27;10.73;;;;;;;23.01;76.88;95175.88;5076632;28;20516;-76
2021/06/24 02:49:30;;;;;;;27.53;10.07;;;;;;;23.02;76.74;95166.84;5041050;28;20924;-76
2021/06/24 02:51:59;;;;;;;16.77;10.77;;;;;;;23.04;76.81;95170.97;5024561;28;20467;-76
2021/06/24 02:54:26;;;;;;;16.77;11.77;;;;;;;22.98;76.76;95161.06;5076198;28;20970;-76
2021/06/24 02:56:53;;;;;;;27.30;12.00;;;;;;;23.04;77.03;95170.97;5076182;28;20453;-76
2021/06/24 02:59:20;;;;;;;27.80;11.97;;;;;;;22.97;77.04;95169.28;5076308;28;20482;-76
2021/06/24 03:01:47;;;;;;;30.10;11.57;;;;;;;23.01;76.68;95170.53;5076011;28;20567;-76
2021/06/24 03:04:14;;;;;;;22.57;10.77;;;;;;;22.93;76.75;95168.88;5075983;28;20456;-76
2021/06/24 03:06:41;;;;;;;25.17;12.10;;;;;;;22.96;77.19;95170.31;5076500;28;20903;-76
2021/06/24 03:09:09;;;;;;;17.93;11.80;;;;;;;23.02;76.97;95164.16;5076179;28;20500;-76
2021/06/24 03:11:36;;;;;;;22.77;10.80;;;;;;;23.08;76.75;95164.16;5076098;28;21001;-76
2021/06/24 03:14:03;;;;;;;28.73;10.87;;;;;;;23.16;76.55;95168.56;5075800;28;20572;-76
2021/06/24 03:16:31;;;;;;;22.30;10.63;;;;;;;23.21;76.43;95181.34;5076045;28;20531;-76
2021/06/24 03:18:58;;;;;;;28.00;11.40;;;;;;;23.24;75.89;95184.44;5075904;28;20497;-76
2021/06/24 03:21:25;;;;;;;27.13;11.60;;;;;;;23.31;75.87;95187.13;5076117;28;20491;-76
2021/06/24 03:23:52;;;;;;;27.40;12.97;;;;;;;23.21;76.86;95198.22;5075637;28;20445;-77
2021/06/24 03:26:20;;;;;;;25.13;12.73;;;;;;;22.94;78.91;95204.47;5075705;28;20507;-76
2021/06/24 03:28:47;;;;;;;20.60;10.30;;;;;;;22.82;80.05;95213.06;5023986;28;20973;-76
2021/06/24 03:31:15;;;;;;;25.73;11.37;;;;;;;22.89;80.16;95217.63;5023327;28;20504;-76
2021/06/24 03:33:42;;;;;;;22.67;12.07;;;;;;;23.01;80.17;95229.44;5075969;28;20545;-79
2021/06/24 03:36:09;;;;;;;17.83;10.97;;;;;;;22.88;80.20;95232.88;5090985;28;20450;-78
2021/06/24 03:38:36;;;;;;;22.50;12.27;;;;;;;22.89;80.65;95228.34;5096707;28;20454;-78
2021/06/24 03:41:04;;;;;;;25.80;12.00;;;;;;;22.52;81.63;95215.09;5060822;28;20442;-78
2021/06/24 03:43:32;;;;;;;22.70;12.23;;;;;;;22.89;81.18;95223.00;5096030;28;20505;-78
2021/06/24 03:46:00;;;;;;;26.47;11.50;;;;;;;23.21;80.53;95213.47;5096169;28;20483;-78
2021/06/24 03:48:27;;;;;;;22.80;10.30;;;;;;;23.56;79.92;95212.38;5044348;28;20446;-78
2021/06/24 03:50:54;;;;;;;26.10;12.20;;;;;;;23.85;77.46;95215.72;5044531;28;20451;-79
2021/06/24 03:53:21;;;;;;;18.80;10.87;;;;;;;24.23;75.58;95219.47;5044786;28;20996;-78
2021/06/24 03:55:48;;;;;;;27.07;11.40;;;;;;;24.59;75.26;95219.06;5096149;28;20500;-79
2021/06/24 03:58:15;;;;;;;29.40;11.77;;;;;;;24.93;72.79;95225.19;5096197;28;20499;-78
2021/06/24 04:00:46;;;;;;;32.33;11.50;;;;;;;25.10;71.55;95210.28;5044219;28;20501;-79
2021/06/24 04:03:13;;;;;;;28.67;11.33;;;;;;;25.47;72.30;95218.63;5096021;28;20542;-78
2021/06/24 04:05:40;;;;;;;21.93;10.60;;;;;;;25.75;69.61;95207.56;5096314;28;20450;-78
2021/06/24 04:08:09;;;;;;;28.23;12.60;;;;;;;25.87;67.78;95217.41;5096073;28;20497;-78
2021/06/24 04:10:37;;;;;;;26.53;13.00;;;;;;;26.05;67.90;95213.16;5095436;28;20505;-80
2021/06/24 04:13:05;;;;;;;23.73;11.10;;;;;;;26.18;66.64;95213.03;5095736;28;20488;-78
2021/06/24 04:15:33;;;;;;;33.47;11.67;;;;;;;26.39;66.51;95212.69;5095911;28;20444;-78
2021/06/24 04:18:03;;;;;;;21.20;10.87;;;;;;;26.70;65.68;95208.28;5095859;28;20461;-78
2021/06/24 04:20:30;;;;;;;28.67;11.93;;;;;;;26.76;64.52;95210.91;5095863;28;20513;-78
2021/06/24 04:22:57;;;;;;;20.60;9.77;;;;;;;27.06;63.42;95207.50;5095223;28;20446;-79
2021/06/24 04:25:25;;;;;;;24.30;11.53;;;;;;;27.27;62.61;95212.44;5096136;28;20451;-79
2021/06/24 04:27:52;;;;;;;23.80;11.63;;;;;;;27.36;62.06;95210.25;5095212;28;20940;-78
2021/06/24 04:30:20;;;;;;;27.00;10.87;;;;;;;27.40;61.75;95211.44;5095157;28;20482;-75
2021/06/24 04:32:47;;;;;;;30.13;10.67;;;;;;;27.45;61.52;95214.28;5094686;28;20497;-75
2021/06/24 04:35:16;;;;;;;30.77;10.60;;;;;;;27.50;61.58;95222.53;5094720;28;20966;-76
2021/06/24 04:37:43;;;;;;;21.77;11.17;;;;;;;27.66;61.41;95223.81;5058487;28;20440;-74
2021/06/24 04:40:12;;;;;;;28.03;11.37;;;;;;;27.97;61.10;95222.75;5094263;28;21042;-75
2021/06/24 04:42:39;;;;;;;23.60;10.70;;;;;;;28.36;60.25;95216.78;5094706;28;20450;-76
2021/06/24 04:45:09;;;;;;;22.70;10.43;;;;;;;28.62;57.88;95207.41;5094707;28;20783;-76
2021/06/24 04:47:36;;;;;;;29.33;12.07;;;;;;;28.64;57.16;95204.47;5025714;28;20964;-75
2021/06/24 04:50:04;;;;;;;35.13;13.77;;;;;;;28.79;57.33;95210.22;5093376;28;20501;-74
2021/06/24 04:52:32;;;;;;;32.33;10.70;;;;;;;29.04;57.58;95214.59;5093944;28;20482;-75
2021/06/24 04:55:00;;;;;;;32.33;10.07;;;;;;;29.32;56.99;95206.53;5093066;28;20878;-76
2021/06/24 04:57:27;;;;;;;25.00;12.27;;;;;;;29.58;55.95;95206.03;5094247;28;20923;-77
2021/06/24 04:59:54;;;;;;;34.03;11.23;;;;;;;29.84;55.46;95196.53;5093649;28;20471;-75
2021/06/24 05:02:21;;;;;;;20.13;10.57;;;;;;;30.14;53.77;95206.28;5041791;28;20452;-76
2021/06/24 05:04:49;;;;;;;28.33;11.80;;;;;;;30.33;53.04;95206.84;5093528;28;20452;-76
2021/06/24 05:07:16;;;;;;;21.53;10.67;;;;;;;30.46;53.09;95196.53;5094014;28;20452;-76
2021/06/24 05:09:45;;;;;;;25.67;10.20;;;;;;;30.61;52.64;95204.09;5093741;28;20440;-76
2021/06/24 05:12:13;;;;;;;23.03;10.50;;;;;;;30.32;53.45;95207.91;5058395;28;20478;-77
2021/06/24 05:14:41;;;;;;;24.37;10.10;;;;;;;30.35;54.26;95223.69;5093675;28;20940;-76
2021/06/24 05:17:14;;;;;;;35.40;11.87;;;;;;;29.83;54.77;95221.13;5094063;28;20442;-77
2021/06/24 05:19:42;;;;;;;25.53;12.87;;;;;;;29.49;56.33;95212.03;5093717;28;20501;-77
2021/06/24 05:22:10;;;;;;;24.03;10.53;;;;;;;29.88;56.41;95208.50;5093774;28;20478;-78
2021/06/24 05:24:37;;;;;;;31.20;11.80;;;;;;;29.53;56.67;95208.63;5093816;28;20501;-77
2021/06/24 05:27:06;;;;;;;25.33;11.37;;;;;;;30.02;56.38;95197.34;5058092;28;20908;-77
2021/06/24 05:29:33;;;;;;;25.97;11.60;;;;;;;30.44;55.77;95211.38;5057749;28;20869;-77
2021/06/24 05:32:00;;;;;;;23.20;10.93;;;;;;;30.80;53.99;95205.47;5093194;28;20443;-77
2021/06/24 05:34:27;;;;;;;23.60;11.10;;;;;;;31.12;53.43;95219.22;5093319;28;20491;-77
2021/06/24 05:36:54;;;;;;;35.27;11.07;;;;;;;31.27;51.82;95212.41;5093306;28;20497;-77
2021/06/24 05:39:21;;;;;;;30.03;12.50;;;;;;;31.32;51.54;95207.88;5092548;28;20440;-78
2021/06/24 05:41:49;;;;;;;31.60;11.50;;;;;;;31.52;53.01;95196.47;5076972;28;20480;-77
2021/06/24 05:44:17;;;;;;;31.87;10.43;;;;;;;31.84;51.29;95201.19;5079432;28;20509;-76
2021/06/24 05:46:44;;;;;;;27.37;11.03;;;;;;;31.99;50.07;95196.72;5047625;28;20503;-76
2021/06/24 05:49:11;;;;;;;25.93;11.77;;;;;;;32.14;50.54;95206.91;5055644;28;20440;-76
2021/06/24 05:51:39;;;;;;;28.40;10.80;;;;;;;32.29;50.29;95204.34;5057659;28;20468;-76
2021/06/24 05:54:06;;;;;;;32.97;12.17;;;;;;;32.54;48.99;95200.22;5093395;28;20491;-77
2021/06/24 05:56:33;;;;;;;21.93;9.13;;;;;;;32.85;48.01;95209.44;5093153;28;20489;-76
2021/06/24 05:59:03;;;;;;;20.60;9.23;;;;;;;33.19;46.71;95204.50;5093085;28;20440;-76
2021/06/24 06:01:31;;;;;;;22.40;9.43;;;;;;;33.40;47.10;95209.00;5093106;28;20454;-76
2021/06/24 06:03:58;;;;;;;26.07;10.07;;;;;;;33.23;46.89;95211.84;5092863;28;20790;-75
2021/06/24 06:06:25;;;;;;;25.73;11.33;;;;;;;33.00;47.89;95219.63;5093107;28;20448;-76
2021/06/24 06:08:52;;;;;;;26.80;11.30;;;;;;;32.58;49.13;95215.75;5092890;28;20504;-76
2021/06/24 06:11:19;;;;;;;32.53;11.20;;;;;;;32.38;50.69;95214.75;5092858;28;20480;-78
2021/06/24 06:13:46;;;;;;;25.53;13.63;;;;;;;31.64;52.24;95213.41;5093044;28;20517;-78
2021/06/24 06:16:13;;;;;;;30.57;12.23;;;;;;;31.55;53.15;95208.69;5040700;28;20509;-77
2021/06/24 06:18:42;;;;;;;32.37;12.87;;;;;;;31.50;51.47;95197.75;5092880;28;20448;-77
2021/06/24 06:21:09;;;;;;;31.37;11.63;;;;;;;31.39;52.03;95203.06;5092928;28;20472;-77
2021/06/24 06:23:36;;;;;;;34.60;13.50;;;;;;;31.27;53.63;95205.09;5093003;28;20473;-77
2021/06/24 06:26:03;;;;;;;26.20;11.87;;;;;;;31.32;53.37;95202.44;5092659;28;20447;-78
2021/06/24 06:28:30;;;;;;;34.17;12.83;;;;;;;30.89;54.01;95208.59;5092943;28;20509;-77
2021/06/24 06:30:59;;;;;;;34.07;12.37;;;;;;;31.19;54.78;95205.50;5092506;28;20444;-77
2021/06/24 06:33:26;;;;;;;30.23;12.90;;;;;;;31.47;54.05;95193.66;5092888;28;20501;-77
2021/06/24 06:35:55;;;;;;;32.80;13.70;;;;;;;31.97;51.62;95195.34;5092820;28;20447;-77
2021/06/24 06:38:24;;;;;;;26.03;11.00;;;;;;;32.39;51.08;95190.06;5073701;28;20924;-77
2021/06/24 06:40:52;;;;;;;24.60;11.10;;;;;;;32.75;49.82;95196.59;5092652;28;20458;-77
2021/06/24 06:43:19;;;;;;;36.97;11.97;;;;;;;33.20;49.52;95206.13;5092286;28;20443;-77
2021/06/24 06:45:47;;;;;;;28.10;10.30;;;;;;;33.61;47.62;95198.19;5091996;28;20448;-78
2021/06/24 06:48:14;;;;;;;26.57;11.23;;;;;;;33.91;47.46;95195.59;5091957;28;20946;-77
2021/06/24 06:50:42;;;;;;;24.53;12.03;;;;;;;34.24;47.40;95190.75;5091853;28;21001;-78
2021/06/24 06:53:11;;;;;;;36.43;10.57;;;;;;;34.54;46.15;95200.88;5092093;28;20512;-78
2021/06/24 06:55:39;;;;;;;43.97;11.20;;;;;;;34.77;46.28;95197.59;5091929;28;20677;-77
2021/06/24 06:58:06;;;;;;;29.60;10.73;;;;;;;34.88;44.45;95203.88;5091973;28;20446;-77
2021/06/24 07:00:34;;;;;;;30.43;10.47;;;;;;;35.06;45.08;95204.13;5091757;28;20494;-77
2021/06/24 07:03:01;;;;;;;22.40;9.20;;;;;;;34.82;45.43;95208.50;5091875;28;20453;-77
2021/06/24 07:05:29;;;;;;;40.03;11.80;;;;;;;34.11;45.78;95192.06;5091886;28;20493;-78
2021/06/24 07:07:56;;;;;;;30.63;11.97;;;;;;;33.97;47.61;95204.59;5092389;28;20481;-77
2021/06/24 07:10:25;;;;;;;38.80;12.83;;;;;;;33.80;46.61;95205.59;5092093;28;20440;-78
2021/06/24 07:12:52;;;;;;;38.60;12.67;;;;;;;33.29;50.14;95207.28;5091939;28;20440;-77
2021/06/24 07:15:19;;;;;;;22.30;10.80;;;;;;;32.89;49.85;95202.41;5091706;28;20515;-77
2021/06/24 07:17:46;;;;;;;31.63;11.80;;;;;;;32.83;49.31;95206.19;5093225;28;20505;-78
2021/06/24 07:20:14;;;;;;;29.23;10.67;;;;;;;32.65;49.97;95210.09;5095514;28;21020;-77
2021/06/24 07:22:41;;;;;;;28.43;11.67;;;;;;;32.91;47.76;95205.69;5043547;28;20439;-77
2021/06/24 07:25:13;;;;;;;39.33;13.13;;;;;;;32.88;47.31;95198.88;5043505;28;20878;-78
2021/06/24 07:27:41;;;;;;;28.67;12.07;;;;;;;33.03;47.69;95200.88;5095793;28;20467;-78
2021/06/24 07:30:09;;;;;;;24.53;10.83;;;;;;;33.21;47.10;95202.31;5095355;28;20472;-77
2021/06/24 07:32:37;;;;;;;29.63;11.43;;;;;;;33.22;46.82;95202.06;5095274;28;20447;-77
2021/06/24 07:35:04;;;;;;;24.30;11.73;;;;;;;32.97;47.58;95201.13;5095494;28;20522;-77
2021/06/24 07:37:31;;;;;;;26.90;12.00;;;;;;;33.37;48.83;95206.81;5095457;28;20447;-78
2021/06/24 07:39:59;;;;;;;32.57;10.77;;;;;;;33.69;47.42;95198.50;5043164;28;20861;-77
2021/06/24 07:42:26;;;;;;;34.53;11.70;;;;;;;34.01;48.03;95205.69;5095428;28;20488;-78
2021/06/24 07:44:55;;;;;;;23.27;11.27;;;;;;;33.94;47.34;95203.22;5095051;28;20869;-78
2021/06/24 07:47:22;;;;;;;35.93;13.13;;;;;;;33.60;48.55;95205.53;5042577;28;20512;-78
2021/06/24 07:49:49;;;;;;;27.37;10.10;;;;;;;33.54;48.83;95203.84;5042803;28;20444;-77
2021/06/24 07:52:16;;;;;;;28.40;12.63;;;;;;;33.78;49.42;95201.50;5094927;28;20479;-77
2021/06/24 07:54:43;;;;;;;22.33;11.13;;;;;;;34.02;46.71;95197.25;5094761;28;20505;-78
2021/06/24 07:57:10;;;;;;;23.53;11.60;;;;;;;34.20;47.38;95197.81;5095022;28;20480;-78
2021/06/24 07:59:37;;;;;;;27.27;12.80;;;;;;;34.34;46.83;95205.22;5094722;28;20484;-78
2021/06/24 08:02:06;;;;;;;32.20;11.33;;;;;;;34.23;45.31;95203.56;5094766;28;20986;-78
2021/06/24 08:04:34;;;;;;;31.23;11.80;;;;;;;34.41;45.82;95200.34;5094895;28;20479;-77
2021/06/24 08:07:01;;;;;;;28.70;11.90;;;;;;;34.58;45.57;95199.22;5094548;28;20906;-77
2021/06/24 08:09:28;;;;;;;31.63;12.07;;;;;;;34.59;45.09;95193.50;5094761;28;20476;-78
2021/06/24 08:11:55;;;;;;;34.50;12.63;;;;;;;34.58;44.89;95191.88;5094513;28;20955;-77
2021/06/24 08:14:23;;;;;;;25.53;12.00;;;;;;;34.82;45.27;95194.84;5094142;28;20515;-78
2021/06/24 08:16:50;;;;;;;26.80;11.20;;;;;;;34.88;45.28;95188.31;5094542;28;20479;-78
2021/06/24 08:19:19;;;;;;;25.67;12.63;;;;;;;35.00;45.42;95196.22;5094327;28;20436;-77
2021/06/24 08:21:46;;;;;;;24.37;11.60;;;;;;;34.72;45.29;95189.44;5042448;28;20483;-77
2021/06/24 08:24:13;;;;;;;36.50;11.30;;;;;;;34.07;45.26;95193.69;5094509;28;20447;-78
2021/06/24 08:26:40;;;;;;;22.30;12.37;;;;;;;33.70;46.55;95194.69;5094241;28;20440;-78
2021/06/24 08:29:07;;;;;;;29.40;10.90;;;;;;;33.78;46.02;95202.31;5093486;28;20455;-78
2021/06/24 08:31:36;;;;;;;24.00;9.57;;;;;;;33.63;46.52;95199.56;5094250;28;20444;-78
2021/06/24 08:34:03;;;;;;;24.77;10.77;;;;;;;33.91;46.34;95201.03;5094002;28;20444;-77
2021/06/24 08:36:31;;;;;;;30.93;9.60;;;;;;;33.96;45.37;95205.69;5042278;28;20448;-77
2021/06/24 08:38:58;;;;;;;36.80;11.27;;;;;;;34.15;46.11;95195.91;5094008;28;20475;-78
2021/06/24 08:41:26;;;;;;;20.80;10.40;;;;;;;34.03;43.31;95198.88;5093810;28;20439;-77
2021/06/24 08:43:54;;;;;;;30.40;11.80;;;;;;;34.11;44.00;95194.78;5094043;28;20444;-77
2021/06/24 08:46:22;;;;;;;19.57;9.57;;;;;;;34.33;43.02;95200.81;5093766;28;20480;-77
2021/06/24 08:48:50;;;;;;;24.97;9.90;;;;;;;34.31;43.66;95208.47;5093747;28;20509;-78
2021/06/24 08:51:18;;;;;;;25.23;10.17;;;;;;;34.51;43.72;95195.97;5093849;28;20476;-78
2021/06/24 08:53:49;;;;;;;29.13;12.00;;;;;;;34.62;41.56;95195.69;5057918;28;20428;-78
2021/06/24 08:56:16;;;;;;;25.00;10.87;;;;;;;34.66;41.45;95196.75;5093849;28;20479;-77
2021/06/24 08:58:45;;;;;;;37.33;10.10;;;;;;;34.68;40.32;95191.84;5093563;28;20455;-78
2021/06/24 09:01:12;;;;;;;29.70;9.93;;;;;;;34.70;39.07;95192.44;5093520;28;20960;-77
2021/06/24 09:03:39;;;;;;;23.33;8.50;;;;;;;34.58;38.43;95182.88;5093442;28;20480;-75
2021/06/24 09:06:08;;;;;;;25.23;8.07;;;;;;;34.47;39.36;95182.88;5093477;28;20436;-77
2021/06/24 09:08:37;;;;;;;18.63;8.70;;;;;;;34.25;39.88;95178.75;5093217;28;20856;-77
2021/06/24 09:11:17;;;;;;;18.03;8.13;;;;;;;34.24;42.96;95182.56;5093573;28;20472;-78
2021/06/24 09:13:59;;;;;;;21.10;8.30;;;;;;;34.33;41.74;95181.75;5093211;28;20435;-77
2021/06/24 09:16:28;;;;;;;19.23;7.47;;;;;;;34.36;37.91;95178.50;5042145;28;20845;-77
2021/06/24 09:19:14;;;;;;;23.57;7.97;;;;;;;34.09;38.17;95180.63;5040597;28;20432;-77
2021/06/24 09:21:42;;;;;;;19.63;7.80;;;;;;;34.19;40.17;95186.13;5093271;28;20447;-77
2021/06/24 09:24:22;;;;;;;20.60;8.47;;;;;;;34.26;35.87;95191.28;5093168;28;20448;-77
2021/06/24 09:26:51;;;;;;;30.30;8.40;;;;;;;34.41;38.60;95183.16;5093081;28;20463;-78
2021/06/24 09:29:19;;;;;;;35.60;9.53;;;;;;;34.49;37.11;95185.34;5092900;28;20467;-77
2021/06/24 09:31:50;;;;;;;23.33;9.57;;;;;;;34.66;37.18;95180.41;5093239;28;20451;-75
2021/06/24 09:34:18;;;;;;;25.20;8.80;;;;;;;34.79;38.83;95173.59;5092935;28;20444;-77
2021/06/24 09:36:47;;;;;;;22.70;8.73;;;;;;;34.89;37.32;95170.88;5093203;28;20501;-78
2021/06/24 09:39:29;;;;;;;17.30;7.93;;;;;;;35.02;36.17;95174.94;5092717;28;20530;-78
2021/06/24 09:42:00;;;;;;;23.53;8.50;;;;;;;35.05;38.24;95175.22;5092558;28;20443;-78
2021/06/24 09:44:27;;;;;;;25.17;8.50;;;;;;;35.14;36.58;95171.91;5092508;28;20436;-78
2021/06/24 09:46:54;;;;;;;25.20;8.23;;;;;;;35.12;35.15;95174.09;5092968;28;20525;-77
2021/06/24 09:49:29;;;;;;;22.67;8.93;;;;;;;35.01;35.05;95160.50;5092737;28;20502;-78
2021/06/24 09:51:57;;;;;;;23.63;8.70;;;;;;;34.95;35.09;95160.75;5092850;28;20843;-77
2021/06/24 09:54:34;;;;;;;30.00;8.93;;;;;;;34.89;35.87;95168.16;5092828;28;20447;-77
2021/06/24 09:57:04;;;;;;;31.37;9.20;;;;;;;34.85;36.26;95161.59;5092718;28;20851;-77
2021/06/24 09:59:33;;;;;;;30.07;8.53;;;;;;;34.79;34.40;95162.69;5092527;28;20462;-78
2021/06/24 10:02:10;;;;;;;20.80;8.17;;;;;;;34.81;34.91;95152.31;5092406;28;20440;-77
2021/06/24 10:04:39;;;;;;;26.53;8.17;;;;;;;34.74;36.01;95163.50;5092924;28;20877;-78
2021/06/24 10:07:08;;;;;;;25.83;8.53;;;;;;;34.69;36.07;95154.50;5040054;28;20939;-77
2021/06/24 10:09:38;;;;;;;18.87;8.07;;;;;;;34.69;36.18;95159.94;5092532;28;20442;-77
2021/06/24 10:12:08;;;;;;;19.47;7.90;;;;;;;34.65;36.74;95153.41;5092369;28;20443;-78
2021/06/24 10:14:35;;;;;;;18.00;8.80;;;;;;;34.55;36.32;95148.00;5041038;28;20580;-77
2021/06/24 10:17:04;;;;;;;32.57;8.60;;;;;;;34.50;36.59;95143.38;5092207;28;20440;-77
2021/06/24 10:19:33;;;;;;;25.50;7.83;;;;;;;34.04;36.47;95137.03;5092250;28;20815;-78
2021/06/24 10:22:01;;;;;;;23.27;7.97;;;;;;;34.00;37.49;95138.69;5092317;28;20440;-78
2021/06/24 10:24:33;;;;;;;18.23;7.57;;;;;;;34.09;36.42;95142.50;5092342;28;20444;-77
2021/06/24 10:27:05;;;;;;;28.27;8.30;;;;;;;34.24;38.72;95134.34;5092178;28;20480;-77
2021/06/24 10:29:43;;;;;;;18.47;7.87;;;;;;;34.43;38.84;95138.19;5092677;28;21012;-77
2021/06/24 10:32:32;;;;;;;24.27;8.50;;;;;;;34.51;38.47;95136.81;5092933;28;20452;-77
2021/06/24 10:35:01;;;;;;;28.13;8.80;;;;;;;34.35;36.12;95130.53;5092863;28;20519;-77
2021/06/24 10:37:30;;;;;;;18.83;7.90;;;;;;;34.17;35.46;95131.91;5092620;28;20447;-78
2021/06/24 10:40:00;;;;;;;20.10;8.40;;;;;;;34.39;36.23;95134.34;5092512;28;20516;-78
2021/06/24 10:42:31;;;;;;;26.33;9.00;;;;;;;34.50;36.80;95124.28;5092677;28;20998;-77
2021/06/24 10:45:02;;;;;;;18.87;7.87;;;;;;;34.61;37.36;95125.06;5092698;28;20447;-77
2021/06/24 10:47:37;;;;;;;24.70;8.50;;;;;;;34.51;39.06;95127.81;5092632;28;20471;-78
2021/06/24 10:50:37;;;;;;;25.13;8.23;;;;;;;34.38;38.19;95121.00;5092606;28;20493;-77
2021/06/24 10:53:46;;;;;;;14.57;7.90;;;;;;;34.01;35.87;95111.16;5094628;28;20436;-77
2021/06/24 10:56:29;;;;;;;16.77;8.13;;;;;;;33.99;38.06;95116.06;5096710;28;20483;-77
2021/06/24 10:58:57;;;;;;;21.47;7.27;;;;;;;34.01;37.65;95118.53;5096579;28;20452;-77
2021/06/24 11:01:46;;;;;;;16.47;6.30;;;;;;;33.98;37.41;95109.00;5096618;28;20444;-78
2021/06/24 11:04:37;;;;;;;26.23;7.97;;;;;;;33.96;36.85;95121.25;5096601;28;20447;-78
2021/06/24 11:07:24;;;;;;;20.17;7.83;;;;;;;34.00;38.34;95116.88;5014053;28;20455;-78
2021/06/24 11:10:17;;;;;;;19.67;9.00;;;;;;;33.99;37.25;95120.72;4981328;28;20443;-78
2021/06/24 11:12:56;;;;;;;29.47;8.10;;;;;;;34.12;37.13;95121.00;5013996;28;20435;-78
2021/06/24 11:15:51;;;;;;;22.87;7.13;;;;;;;34.11;35.42;95115.81;5014034;28;20486;-77
2021/06/24 11:18:56;;;;;;;18.00;7.90;;;;;;;34.32;35.70;95103.81;5013938;28;20455;-78
2021/06/24 11:21:54;;;;;;;23.63;7.60;;;;;;;34.52;38.04;95110.38;5014055;28;20486;-77
2021/06/24 11:24:24;;;;;;;30.17;8.33;;;;;;;34.65;36.29;95115.25;4980912;28;20451;-78
2021/06/24 11:26:53;;;;;;;31.20;8.33;;;;;;;34.78;33.71;95110.06;5013655;28;20455;-78
2021/06/24 11:29:32;;;;;;;33.80;9.17;;;;;;;34.88;35.15;95103.78;5013849;28;20486;-78